createdAt,value
2022-12-25T00:02:21.447Z,2.88
2022-12-25T00:04:48.283Z,2.90
2022-12-25T00:07:15.119Z,2.78
2022-12-25T00:09:41.971Z,2.72
2022-12-25T00:12:08.970Z,2.92
2022-12-25T00:14:35.819Z,2.85
2022-12-25T00:17:02.635Z,2.40
2022-12-25T00:19:29.444Z,2.45
2022-12-25T00:21:56.279Z,2.47
2022-12-25T00:24:23.068Z,2.22
2022-12-25T00:26:49.909Z,2.42
2022-12-25T00:29:16.801Z,2.85
2022-12-25T00:31:43.641Z,2.35
2022-12-25T00:34:10.633Z,2.63
2022-12-25T00:36:41.640Z,2.28
2022-12-25T00:39:09.628Z,2.30
2022-12-25T00:41:54.895Z,2.50
2022-12-25T00:44:21.807Z,2.35
2022-12-25T00:46:49.172Z,2.40
2022-12-25T00:49:16.085Z,2.00
2022-12-25T00:51:42.930Z,2.10
2022-12-25T00:54:10.116Z,2.25
2022-12-25T00:56:37.038Z,2.25
2022-12-25T00:59:03.924Z,2.60
2022-12-25T01:01:31.296Z,2.60
2022-12-25T01:03:58.557Z,2.40
2022-12-25T01:06:25.683Z,2.20
2022-12-25T01:09:11.381Z,2.35
2022-12-25T01:11:38.198Z,1.92
2022-12-25T01:14:05.186Z,2.00
2022-12-25T01:16:32.169Z,2.22
2022-12-25T01:18:59.157Z,1.92
2022-12-25T01:21:26.034Z,2.00
2022-12-25T01:23:53.648Z,2.70
2022-12-25T01:26:22.743Z,2.25
2022-12-25T01:28:50.719Z,1.92
2022-12-25T01:31:20.098Z,2.20
2022-12-25T01:33:47.579Z,1.80
2022-12-25T01:36:16.672Z,1.98
2022-12-25T01:38:44.245Z,1.90
2022-12-25T01:41:12.356Z,2.00
2022-12-25T01:44:02.961Z,2.03
2022-12-25T01:46:30.509Z,2.20
2022-12-25T01:49:01.568Z,1.90
2022-12-25T01:51:40.885Z,2.03
2022-12-25T01:54:19.456Z,1.70
2022-12-25T01:56:47.260Z,2.17
2022-12-25T01:59:18.647Z,1.70
2022-12-25T02:01:46.312Z,1.67
2022-12-25T02:04:40.120Z,1.50
2022-12-25T02:07:13.003Z,1.80
2022-12-25T02:09:39.974Z,1.60
2022-12-25T02:12:09.724Z,1.70
2022-12-25T02:14:37.606Z,1.50
2022-12-25T02:17:10.566Z,1.52
2022-12-25T02:20:06.612Z,1.50
2022-12-25T02:22:48.282Z,1.30
2022-12-25T02:25:36.888Z,1.58
2022-12-25T02:28:19.017Z,1.88
2022-12-25T02:31:00.261Z,1.60
2022-12-25T02:34:05.791Z,1.48
2022-12-25T02:36:50.843Z,1.40
2022-12-25T02:39:59.367Z,1.42
2022-12-25T02:42:48.871Z,1.58
2022-12-25T02:45:40.122Z,1.80
2022-12-25T02:48:26.979Z,1.35
2022-12-25T02:51:14.023Z,1.60
2022-12-25T02:54:01.726Z,1.50
2022-12-25T02:56:49.078Z,1.70
2022-12-25T02:59:36.816Z,1.27
2022-12-25T03:02:25.323Z,1.23
2022-12-25T03:05:15.528Z,1.27
2022-12-25T03:07:44.116Z,1.45
2022-12-25T03:10:33.326Z,1.52
2022-12-25T03:13:12.765Z,1.20
2022-12-25T03:15:58.373Z,0.98
2022-12-25T03:18:30.073Z,1.50
2022-12-25T03:21:15.933Z,1.30
2022-12-25T03:24:06.194Z,1.20
2022-12-25T03:26:52.067Z,1.05
2022-12-25T03:29:37.396Z,1.20
2022-12-25T03:32:18.864Z,1.10
2022-12-25T03:35:25.910Z,1.20
2022-12-25T03:38:20.267Z,1.10
2022-12-25T03:41:28.852Z,1.27
2022-12-25T03:45:05.714Z,1.33
2022-12-25T03:47:58.644Z,0.85
2022-12-25T03:51:03.997Z,1.30
2022-12-25T03:53:56.408Z,1.00
2022-12-25T03:56:43.305Z,1.02
2022-12-25T03:59:28.730Z,1.00
2022-12-25T04:02:14.302Z,1.00
2022-12-25T04:05:00.013Z,0.85
2022-12-25T04:07:45.502Z,0.82
2022-12-25T04:10:31.062Z,0.73
2022-12-25T04:13:16.697Z,0.60
2022-12-25T04:16:02.161Z,0.90
2022-12-25T04:18:47.873Z,0.90
2022-12-25T04:21:33.230Z,0.80
2022-12-25T04:24:18.494Z,0.90
2022-12-25T04:27:04.000Z,0.57
2022-12-25T04:29:49.389Z,0.80
2022-12-25T04:32:35.020Z,0.73
2022-12-25T04:35:20.715Z,0.98
2022-12-25T04:37:47.547Z,0.60
2022-12-25T04:40:14.514Z,0.98
2022-12-25T04:42:41.559Z,0.60
2022-12-25T04:45:09.167Z,0.77
2022-12-25T04:47:35.984Z,0.65
2022-12-25T04:50:02.879Z,0.75
2022-12-25T04:52:29.739Z,0.65
2022-12-25T04:54:56.559Z,0.60
2022-12-25T04:57:23.391Z,0.68
2022-12-25T04:59:50.205Z,0.60
2022-12-25T05:02:17.112Z,0.65
2022-12-25T05:04:44.000Z,0.60
2022-12-25T05:07:10.865Z,0.80
2022-12-25T05:09:41.749Z,0.77
2022-12-25T05:12:09.498Z,0.70
2022-12-25T05:14:36.543Z,0.70
2022-12-25T05:17:03.478Z,0.50
2022-12-25T05:19:30.295Z,0.55
2022-12-25T05:21:57.140Z,0.80
2022-12-25T05:24:27.757Z,0.80
2022-12-25T05:26:55.185Z,0.80
2022-12-25T05:29:22.092Z,0.82
2022-12-25T05:31:48.964Z,0.90
2022-12-25T05:34:15.858Z,0.75
2022-12-25T05:36:42.750Z,0.47
2022-12-25T05:39:09.549Z,0.43
2022-12-25T05:41:36.392Z,0.70
2022-12-25T05:44:03.419Z,0.73
2022-12-25T05:46:30.346Z,0.75
2022-12-25T05:48:57.245Z,0.90
2022-12-25T05:51:25.170Z,0.80
2022-12-25T05:53:52.095Z,0.65
2022-12-25T05:56:18.918Z,0.70
2022-12-25T05:58:45.786Z,0.52
2022-12-25T06:01:19.559Z,0.63
2022-12-25T06:03:46.622Z,0.65
2022-12-25T06:06:13.945Z,0.73
2022-12-25T06:08:41.475Z,0.68
2022-12-25T06:11:10.007Z,0.50
2022-12-25T06:13:37.249Z,0.57
2022-12-25T06:16:06.176Z,0.60
2022-12-25T06:18:36.615Z,0.52
2022-12-25T06:21:12.094Z,0.70
2022-12-25T06:23:39.904Z,0.80
2022-12-25T06:26:08.900Z,0.80
2022-12-25T06:28:36.128Z,0.80
2022-12-25T06:31:11.190Z,1.02
2022-12-25T06:33:38.486Z,1.10
2022-12-25T06:36:10.680Z,0.90
2022-12-25T06:38:37.533Z,0.70
2022-12-25T06:41:10.368Z,0.80
2022-12-25T06:43:38.014Z,0.60
2022-12-25T06:46:10.641Z,0.60
2022-12-25T06:48:38.768Z,0.63
2022-12-25T06:51:06.802Z,0.82
2022-12-25T06:53:39.910Z,1.13
2022-12-25T06:56:10.136Z,1.23
2022-12-25T06:58:37.029Z,0.98
2022-12-25T07:01:15.493Z,1.00
2022-12-25T07:03:44.012Z,1.10
2022-12-25T07:06:11.155Z,1.20
2022-12-25T07:08:38.099Z,1.15
2022-12-25T07:11:05.139Z,0.90
2022-12-25T07:13:31.986Z,1.23
2022-12-25T07:16:04.368Z,1.30
2022-12-25T07:18:32.572Z,1.33
2022-12-25T07:21:00.285Z,1.30
2022-12-25T07:23:27.371Z,1.23
2022-12-25T07:26:01.523Z,1.10
2022-12-25T07:28:29.732Z,0.93
2022-12-25T07:31:05.280Z,0.98
2022-12-25T07:33:32.860Z,1.08
2022-12-25T07:36:00.295Z,1.30
2022-12-25T07:38:27.489Z,1.20
2022-12-25T07:40:54.531Z,1.20
2022-12-25T07:43:21.433Z,1.20
2022-12-25T07:45:48.445Z,1.10
2022-12-25T07:48:16.789Z,1.50
2022-12-25T07:50:44.053Z,1.25
2022-12-25T07:53:10.906Z,1.30
2022-12-25T07:55:37.761Z,1.60
2022-12-25T07:58:07.211Z,1.42
2022-12-25T08:00:34.377Z,1.20
2022-12-25T08:03:01.725Z,1.38
2022-12-25T08:05:28.740Z,1.38
2022-12-25T08:07:57.905Z,1.45
2022-12-25T08:10:25.198Z,1.38
2022-12-25T08:12:55.196Z,1.15
2022-12-25T08:15:22.043Z,1.40
2022-12-25T08:17:48.866Z,2.42
2022-12-25T08:20:15.814Z,2.88
2022-12-25T08:22:42.630Z,2.20
2022-12-25T08:25:09.823Z,2.03
2022-12-25T08:27:36.700Z,2.10
2022-12-25T08:30:04.256Z,1.67
2022-12-25T08:32:33.742Z,2.15
2022-12-25T08:35:00.641Z,2.00
2022-12-25T08:37:30.306Z,2.20
2022-12-25T08:39:57.151Z,2.03
2022-12-25T08:42:24.136Z,1.80
2022-12-25T08:44:50.957Z,1.80
2022-12-25T08:47:18.021Z,1.50
2022-12-25T08:49:44.836Z,1.52
2022-12-25T08:52:11.793Z,1.60
2022-12-25T08:54:38.662Z,1.73
2022-12-25T08:57:05.590Z,1.10
2022-12-25T08:59:32.575Z,1.52
2022-12-25T09:01:59.497Z,1.10
2022-12-25T09:04:26.398Z,1.42
2022-12-25T09:06:53.285Z,1.30
2022-12-25T09:09:20.111Z,1.27
2022-12-25T09:11:48.781Z,1.30
2022-12-25T09:14:15.579Z,1.30
2022-12-25T09:16:42.456Z,1.38
2022-12-25T09:19:09.268Z,1.67
2022-12-25T09:21:36.898Z,1.70
2022-12-25T09:24:04.849Z,1.80
2022-12-25T09:26:31.706Z,2.55
2022-12-25T09:28:58.600Z,2.80
2022-12-25T09:31:25.570Z,3.00
2022-12-25T09:33:56.741Z,2.63
2022-12-25T09:36:24.088Z,3.17
2022-12-25T09:38:51.301Z,2.95
2022-12-25T09:41:52.239Z,2.95
2022-12-25T09:44:26.920Z,2.55
2022-12-25T09:46:58.505Z,2.50
2022-12-25T09:49:31.306Z,2.55
2022-12-25T09:52:05.228Z,2.22
2022-12-25T09:55:14.798Z,2.10
2022-12-25T09:57:45.660Z,2.20
2022-12-25T10:00:17.662Z,1.65
2022-12-25T10:02:53.619Z,2.38
2022-12-25T10:05:29.431Z,2.42
2022-12-25T10:08:30.334Z,2.10
2022-12-25T10:11:27.172Z,2.45
2022-12-25T10:14:01.539Z,2.20
2022-12-25T10:16:55.373Z,2.20
2022-12-25T10:20:01.103Z,2.13
2022-12-25T10:22:35.984Z,2.17
2022-12-25T10:25:06.933Z,2.13
2022-12-25T10:27:42.795Z,2.00
2022-12-25T10:30:30.829Z,2.33
2022-12-25T10:32:58.586Z,1.70
2022-12-25T10:35:28.291Z,2.00
2022-12-25T10:38:21.557Z,1.95
2022-12-25T10:41:12.879Z,1.60
2022-12-25T10:43:47.370Z,1.48
2022-12-25T10:46:16.749Z,1.95
2022-12-25T10:48:54.720Z,1.80
2022-12-25T10:51:39.026Z,1.65
2022-12-25T10:54:21.844Z,1.45
2022-12-25T10:57:02.071Z,1.55
2022-12-25T10:59:34.323Z,1.90
2022-12-25T11:02:30.610Z,2.38
2022-12-25T11:05:14.275Z,2.50
2022-12-25T11:07:56.056Z,2.40
2022-12-25T11:10:38.220Z,2.60
2022-12-25T11:13:17.665Z,2.50
2022-12-25T11:15:47.651Z,2.28
2022-12-25T11:18:27.108Z,2.35
2022-12-25T11:21:14.777Z,2.67
2022-12-25T11:23:46.753Z,2.50
2022-12-25T11:26:15.265Z,2.60
2022-12-25T11:28:44.546Z,2.40
2022-12-25T11:31:21.560Z,2.25
2022-12-25T11:33:57.637Z,2.10
2022-12-25T11:36:27.291Z,2.42
2022-12-25T11:38:54.215Z,2.17
2022-12-25T11:41:26.994Z,2.22
2022-12-25T11:43:59.369Z,2.65
2022-12-25T11:46:37.780Z,2.35
2022-12-25T11:49:14.484Z,2.58
2022-12-25T11:51:46.004Z,2.55
2022-12-25T11:54:15.590Z,2.47
2022-12-25T11:56:42.733Z,2.40
2022-12-25T11:59:56.092Z,2.80
2022-12-25T12:02:36.609Z,2.38
2022-12-25T12:05:38.642Z,2.63
2022-12-25T12:08:06.596Z,2.72
2022-12-25T12:10:59.194Z,2.75
2022-12-25T12:13:41.891Z,2.50
2022-12-25T12:16:09.866Z,2.47
2022-12-25T12:18:36.864Z,2.88
2022-12-25T12:21:22.225Z,2.58
2022-12-25T12:23:54.330Z,2.08
2022-12-25T12:26:24.845Z,2.42
2022-12-25T12:28:55.518Z,2.70
2022-12-25T12:31:22.976Z,2.83
2022-12-25T12:33:58.640Z,2.50
2022-12-25T12:36:36.166Z,2.28
2022-12-25T12:39:06.077Z,2.30
2022-12-25T12:41:46.333Z,2.53
2022-12-25T12:44:16.064Z,2.42
2022-12-25T12:46:52.852Z,2.05
2022-12-25T12:49:24.994Z,2.13
2022-12-25T12:52:05.588Z,2.20
2022-12-25T12:54:32.917Z,2.00
2022-12-25T12:57:02.485Z,2.30
2022-12-25T12:59:40.081Z,2.47
2022-12-25T13:02:44.339Z,2.13
2022-12-25T13:05:35.097Z,1.98
2022-12-25T13:08:23.962Z,1.90
2022-12-25T13:11:02.188Z,1.95
2022-12-25T13:13:36.613Z,1.77
2022-12-25T13:18:31.732Z,1.60
2022-12-25T13:21:05.537Z,1.80
2022-12-25T13:23:37.539Z,1.90
2022-12-25T13:26:11.474Z,1.83
2022-12-25T13:28:38.333Z,1.90
2022-12-25T13:31:13.754Z,2.20
2022-12-25T13:33:45.263Z,2.22
2022-12-25T13:36:14.181Z,2.08
2022-12-25T13:38:46.796Z,1.80
2022-12-25T13:42:05.841Z,1.80
2022-12-25T13:44:55.119Z,1.80
2022-12-25T13:47:32.832Z,1.83
2022-12-25T13:50:21.149Z,1.77
2022-12-25T13:52:48.058Z,1.58
2022-12-25T13:55:18.757Z,1.63
2022-12-25T13:58:05.828Z,1.63
2022-12-25T14:00:35.164Z,1.83
2022-12-25T14:03:04.213Z,1.60
2022-12-25T14:05:42.085Z,1.60
2022-12-25T14:08:22.753Z,1.90
2022-12-25T14:10:52.511Z,1.60
2022-12-25T14:13:23.327Z,1.50
2022-12-25T14:15:51.209Z,1.52
2022-12-25T14:18:20.787Z,1.50
2022-12-25T14:21:06.006Z,1.60
2022-12-25T14:23:45.370Z,1.60
2022-12-25T14:26:20.579Z,1.50
2022-12-25T14:28:54.461Z,1.30
2022-12-25T14:31:23.420Z,1.20
2022-12-25T14:33:52.495Z,1.13
2022-12-25T14:36:19.614Z,1.10
2022-12-25T14:38:57.274Z,1.10
2022-12-25T14:41:34.064Z,1.30
2022-12-25T14:44:04.139Z,1.38
2022-12-25T14:46:32.081Z,1.55
2022-12-25T14:49:04.215Z,1.80
2022-12-25T14:51:33.063Z,1.45
2022-12-25T14:54:03.798Z,1.40
2022-12-25T14:56:39.141Z,1.48
2022-12-25T14:59:08.310Z,1.40
2022-12-25T15:01:38.372Z,1.13
2022-12-25T15:04:16.047Z,1.05
2022-12-25T15:07:00.599Z,1.05
2022-12-25T15:09:30.308Z,1.40
2022-12-25T15:11:57.334Z,1.20
2022-12-25T15:14:25.313Z,1.20
2022-12-25T15:16:58.966Z,1.50
2022-12-25T15:19:34.798Z,1.63
2022-12-25T15:22:04.149Z,1.33
2022-12-25T15:24:30.988Z,1.45
2022-12-25T15:27:00.332Z,1.40
2022-12-25T15:30:00.253Z,1.50
2022-12-25T15:32:24.486Z,1.05
2022-12-25T15:34:51.395Z,1.20
2022-12-25T15:37:18.932Z,1.10
2022-12-25T15:39:46.506Z,1.33
2022-12-25T15:42:15.688Z,1.17
2022-12-25T15:44:43.757Z,1.30
2022-12-25T15:47:15.193Z,1.10
2022-12-25T15:49:42.904Z,1.30
2022-12-25T15:52:16.777Z,1.10
2022-12-25T15:54:43.939Z,1.40
2022-12-25T15:57:20.683Z,1.20
2022-12-25T15:59:47.803Z,1.00
2022-12-25T16:02:17.178Z,1.30
2022-12-25T16:04:44.474Z,1.30
2022-12-25T16:07:20.462Z,1.38
2022-12-25T16:09:47.373Z,1.50
2022-12-25T16:12:14.350Z,1.23
2022-12-25T16:14:41.367Z,1.60
2022-12-25T16:17:11.428Z,1.25
2022-12-25T16:19:38.272Z,1.52
2022-12-25T16:22:12.898Z,1.27
2022-12-25T16:24:39.765Z,1.27
2022-12-25T16:27:06.609Z,1.20
2022-12-25T16:29:33.858Z,1.20
2022-12-25T16:32:00.761Z,1.30
2022-12-25T16:34:27.571Z,1.50
2022-12-25T16:36:56.327Z,1.27
2022-12-25T16:39:23.332Z,1.40
2022-12-25T16:41:50.202Z,1.30
2022-12-25T16:44:17.155Z,1.38
2022-12-25T16:46:44.191Z,1.40
2022-12-25T16:49:11.094Z,1.48
2022-12-25T16:51:37.963Z,1.48
2022-12-25T16:54:05.134Z,1.77
2022-12-25T16:56:32.444Z,1.60
2022-12-25T16:59:00.939Z,1.40
2022-12-25T17:01:28.103Z,1.38
2022-12-25T17:03:58.003Z,1.70
2022-12-25T17:06:26.940Z,1.70
2022-12-25T17:08:57.472Z,1.60
2022-12-25T17:11:27.633Z,1.60
2022-12-25T17:13:55.398Z,1.65
2022-12-25T17:16:27.703Z,1.73
2022-12-25T17:18:56.298Z,1.60
2022-12-25T17:21:24.855Z,1.58
2022-12-25T17:23:54.298Z,1.60
2022-12-25T17:26:24.949Z,1.75
2022-12-25T17:28:51.910Z,1.60
2022-12-25T17:31:18.932Z,1.58
2022-12-25T17:33:46.171Z,1.90
2022-12-25T17:36:18.883Z,1.67
2022-12-25T17:38:46.393Z,1.65
2022-12-25T17:41:14.783Z,1.77
2022-12-25T17:43:42.501Z,1.75
2022-12-25T17:46:13.250Z,1.80
2022-12-25T17:48:40.350Z,1.70
2022-12-25T17:51:10.153Z,2.05
2022-12-25T17:53:42.887Z,2.10
2022-12-25T17:56:10.704Z,2.10
2022-12-25T17:58:39.015Z,2.05
2022-12-25T18:01:11.690Z,2.13
2022-12-25T18:03:38.957Z,2.28
2022-12-25T18:06:08.493Z,1.88
2022-12-25T18:08:39.537Z,1.90
2022-12-25T18:11:09.528Z,1.95
2022-12-25T18:13:38.229Z,2.05
2022-12-25T18:16:07.201Z,1.60
2022-12-25T18:18:35.466Z,2.10
2022-12-25T18:21:02.508Z,2.10
2022-12-25T18:23:29.423Z,2.15
2022-12-25T18:25:56.658Z,2.00
2022-12-25T18:28:23.537Z,2.17
2022-12-25T18:30:50.439Z,2.15
2022-12-25T18:33:17.543Z,2.47
2022-12-25T18:35:46.207Z,1.92
2022-12-25T18:38:14.264Z,1.75
2022-12-25T18:40:45.317Z,2.05
2022-12-25T18:43:12.783Z,2.00
2022-12-25T18:45:39.712Z,1.63
2022-12-25T18:48:07.154Z,1.88
2022-12-25T18:50:36.015Z,1.90
2022-12-25T18:53:03.794Z,2.00
2022-12-25T18:55:31.439Z,1.85
2022-12-25T18:57:58.763Z,1.90
2022-12-25T19:00:26.021Z,2.13
2022-12-25T19:02:58.272Z,2.13
2022-12-25T19:05:25.374Z,2.00
2022-12-25T19:07:52.305Z,2.10
2022-12-25T19:10:19.234Z,1.80
2022-12-25T19:12:46.071Z,1.98
2022-12-25T19:15:13.693Z,2.30
2022-12-25T19:17:40.490Z,2.70
2022-12-25T19:20:08.118Z,2.60
2022-12-25T19:22:34.923Z,2.42
2022-12-25T19:25:01.766Z,2.60
2022-12-25T19:27:28.734Z,2.90
2022-12-25T19:29:55.571Z,3.15
2022-12-25T19:32:22.536Z,2.67
2022-12-25T19:34:49.418Z,3.15
2022-12-25T19:37:16.314Z,3.00
2022-12-25T19:39:46.825Z,2.80
2022-12-25T19:42:16.013Z,3.05
2022-12-25T19:44:43.510Z,2.72
2022-12-25T19:47:11.229Z,2.65
2022-12-25T19:49:39.200Z,2.97
2022-12-25T19:52:08.135Z,2.50
2022-12-25T19:54:35.249Z,2.53
2022-12-25T19:57:02.089Z,2.58
2022-12-25T19:59:29.053Z,2.65
2022-12-25T20:01:56.048Z,2.60
2022-12-25T20:04:23.107Z,2.60
2022-12-25T20:06:49.974Z,2.60
2022-12-25T20:09:21.190Z,2.95
2022-12-25T20:11:49.070Z,3.08
2022-12-25T20:14:16.736Z,2.70
2022-12-25T20:16:44.120Z,2.78
2022-12-25T20:19:14.262Z,2.53
2022-12-25T20:21:41.261Z,2.45
2022-12-25T20:24:10.198Z,2.42
2022-12-25T20:26:38.404Z,2.40
2022-12-25T20:29:05.854Z,2.22
2022-12-25T20:31:34.592Z,2.55
2022-12-25T20:34:06.321Z,2.38
2022-12-25T20:36:37.349Z,2.40
2022-12-25T20:39:08.599Z,2.45
2022-12-25T20:41:35.970Z,2.70
2022-12-25T20:44:04.301Z,2.28
2022-12-25T20:46:31.636Z,2.35
2022-12-25T20:48:58.607Z,2.13
2022-12-25T20:51:26.364Z,2.55
2022-12-25T20:53:53.946Z,2.35
2022-12-25T20:56:23.063Z,2.38
2022-12-25T20:58:58.324Z,2.70
2022-12-25T21:01:26.535Z,2.33
2022-12-25T21:03:53.819Z,2.47
2022-12-25T21:06:21.626Z,2.20
2022-12-25T21:08:48.494Z,2.42
2022-12-25T21:11:15.969Z,2.60
2022-12-25T21:13:45.420Z,2.40
2022-12-25T21:16:15.456Z,1.98
2022-12-25T21:18:42.691Z,2.42
2022-12-25T21:21:09.935Z,2.20
2022-12-25T21:23:38.760Z,2.25
2022-12-25T21:26:21.119Z,2.30
2022-12-25T21:28:49.803Z,2.60
2022-12-25T21:31:17.531Z,2.30
2022-12-25T21:33:54.044Z,2.42
2022-12-25T21:36:34.567Z,2.47
2022-12-25T21:39:04.679Z,1.90
2022-12-25T21:41:32.767Z,2.17
2022-12-25T21:43:59.839Z,2.10
2022-12-25T21:46:27.381Z,2.20
2022-12-25T21:48:54.802Z,2.25
2022-12-25T21:51:43.441Z,2.08
2022-12-25T21:54:11.911Z,2.08
2022-12-25T21:56:44.789Z,2.05
2022-12-25T21:59:20.711Z,2.03
2022-12-25T22:01:48.291Z,2.13
2022-12-25T22:04:16.718Z,1.90
2022-12-25T22:07:03.669Z,1.95
2022-12-25T22:09:30.803Z,2.08
2022-12-25T22:12:16.609Z,2.20
2022-12-25T22:14:53.745Z,2.30
2022-12-25T22:17:52.364Z,2.08
2022-12-25T22:20:23.896Z,2.22
2022-12-25T22:22:51.098Z,1.73
2022-12-25T22:25:18.952Z,1.88
2022-12-25T22:27:47.132Z,2.30
2022-12-25T22:30:25.781Z,2.00
2022-12-25T22:32:53.121Z,1.80
2022-12-25T22:35:20.764Z,2.03
2022-12-25T22:37:48.258Z,1.90
2022-12-25T22:40:17.530Z,2.28
2022-12-25T22:42:44.443Z,2.17
2022-12-25T22:45:12.323Z,2.03
2022-12-25T22:47:39.429Z,2.17
2022-12-25T22:50:07.313Z,2.42
2022-12-25T22:52:34.238Z,2.00
2022-12-25T22:55:02.389Z,2.10
2022-12-25T22:57:29.262Z,2.20
2022-12-25T22:59:56.107Z,2.15
2022-12-25T23:02:23.256Z,1.90
2022-12-25T23:04:50.350Z,2.10
2022-12-25T23:07:17.347Z,2.25
2022-12-25T23:09:44.761Z,2.30
2022-12-25T23:12:32.083Z,2.10
2022-12-25T23:14:58.971Z,2.25
2022-12-25T23:17:44.614Z,1.95
2022-12-25T23:20:33.128Z,2.00
2022-12-25T23:23:18.744Z,1.80
2022-12-25T23:26:04.193Z,2.03
2022-12-25T23:28:49.671Z,2.20
2022-12-25T23:31:16.842Z,1.92
2022-12-25T23:33:44.011Z,2.08
2022-12-25T23:36:10.904Z,2.08
2022-12-25T23:38:37.777Z,1.92
2022-12-25T23:41:04.587Z,2.28
2022-12-25T23:43:31.450Z,1.85
2022-12-25T23:45:58.337Z,1.88
2022-12-25T23:48:25.194Z,2.03
2022-12-25T23:50:52.069Z,2.28
2022-12-25T23:53:18.893Z,2.33
2022-12-25T23:55:50.052Z,1.92
2022-12-25T23:58:20.305Z,2.10
